Time;durP1;ratioP1;P1;durP2;ratioP2;P2;SDS_P1;SDS_P2;PMS_P1;PMS_P2;Temp;Humidity;BMP_temperature;BMP_pressure;BME280_temperature;BME280_humidity;BME280_pressure;Samples;Min_cycle;Max_cycle;Signal;HPM_P1;HPM_P2
2022/01/05 00:01:38;;;;;;;7.43;3.65;;;;;;;5.11;81.27;96687.50;5088699;28;20020;-66
2022/01/05 00:04:04;;;;;;;7.90;3.85;;;;;;;5.08;81.16;96694.34;5108059;28;20053;-66
2022/01/05 00:06:29;;;;;;;9.35;3.85;;;;;;;5.10;81.73;96683.16;5107216;28;20034;-66
2022/01/05 00:08:55;;;;;;;8.35;4.60;;;;;;;5.11;81.33;96674.72;5107393;28;20085;-66
2022/01/05 00:11:20;;;;;;;10.43;4.10;;;;;;;5.12;81.15;96680.94;5106878;28;20023;-66
2022/01/05 00:13:46;;;;;;;5.85;3.47;;;;;;;5.07;81.10;96692.75;5108927;28;20077;-67
2022/01/05 00:16:12;;;;;;;7.38;3.60;;;;;;;5.05;81.58;96689.53;5091157;28;20028;-66
2022/01/05 00:18:37;;;;;;;8.07;3.70;;;;;;;5.06;81.47;96683.81;5109559;28;20038;-66
2022/01/05 00:21:04;;;;;;;8.80;4.05;;;;;;;5.07;81.31;96690.03;5106469;28;20039;-67
2022/01/05 00:23:30;;;;;;;5.78;3.10;;;;;;;5.09;81.37;96706.03;5088614;28;20027;-66
2022/01/05 00:25:55;;;;;;;11.05;6.57;;;;;;;5.13;81.67;96696.97;5107950;28;20073;-66
2022/01/05 00:28:21;;;;;;;5.85;3.45;;;;;;;5.17;81.70;96689.81;5090569;28;20019;-67
2022/01/05 00:30:46;;;;;;;5.45;3.28;;;;;;;5.17;81.09;96687.09;5108309;28;20024;-67
2022/01/05 00:33:13;;;;;;;5.78;4.00;;;;;;;5.15;80.92;96710.25;5109106;28;20026;-67
2022/01/05 00:35:38;;;;;;;3.72;2.50;;;;;;;5.19;81.48;96694.94;5088969;28;20506;-67
2022/01/05 00:38:04;;;;;;;3.13;2.40;;;;;;;5.18;80.69;96699.59;5090254;28;20031;-67
2022/01/05 00:40:29;;;;;;;3.78;2.50;;;;;;;5.19;81.02;96701.19;5089816;28;20122;-66
2022/01/05 00:42:55;;;;;;;3.83;2.72;;;;;;;5.27;81.37;96705.09;5108770;28;20028;-66
2022/01/05 00:45:20;;;;;;;3.50;2.53;;;;;;;5.39;81.28;96706.50;5108561;28;20012;-66
2022/01/05 00:47:46;;;;;;;4.53;2.72;;;;;;;5.42;81.06;96711.31;5108772;28;20706;-67
2022/01/05 00:50:11;;;;;;;3.72;2.55;;;;;;;5.40;80.67;96708.88;5107688;28;20103;-66
2022/01/05 00:52:37;;;;;;;4.38;2.80;;;;;;;5.36;80.80;96711.44;5108772;28;20016;-66
2022/01/05 00:55:03;;;;;;;5.63;2.85;;;;;;;5.39;80.51;96728.25;5107516;28;20065;-67
2022/01/05 00:57:29;;;;;;;3.13;2.15;;;;;;;5.39;80.80;96734.47;5108188;28;20036;-67
2022/01/05 00:59:55;;;;;;;4.38;3.00;;;;;;;5.33;80.31;96722.91;5106231;28;20079;-67
2022/01/05 01:02:20;;;;;;;4.47;3.13;;;;;;;5.31;80.46;96716.97;5090428;28;20027;-67
2022/01/05 01:04:46;;;;;;;12.48;5.75;;;;;;;5.33;80.36;96717.47;5108386;28;20020;-67
2022/01/05 01:07:11;;;;;;;17.20;8.60;;;;;;;5.38;80.89;96707.59;5107841;28;20040;-67
2022/01/05 01:09:37;;;;;;;23.42;12.77;;;;;;;5.47;80.61;96714.72;5111601;28;20024;-67
2022/01/05 01:12:03;;;;;;;13.00;6.68;;;;;;;5.59;81.16;96702.50;5113227;27;20392;-67
2022/01/05 01:14:28;;;;;;;8.75;5.70;;;;;;;5.66;81.09;96725.44;5111466;28;20023;-67
2022/01/05 01:16:54;;;;;;;5.85;4.45;;;;;;;5.76;81.17;96721.69;5076784;28;20106;-65
2022/01/05 01:19:19;;;;;;;5.75;4.30;;;;;;;5.86;80.65;96720.66;5111910;28;20032;-65
2022/01/05 01:21:45;;;;;;;7.13;4.93;;;;;;;5.90;80.84;96726.28;5110132;28;20432;-65
2022/01/05 01:24:10;;;;;;;6.97;4.97;;;;;;;5.87;80.52;96727.72;5111860;28;20028;-65
2022/01/05 01:26:36;;;;;;;9.85;5.55;;;;;;;5.85;80.14;96738.09;5093461;28;20598;-65
2022/01/05 01:29:02;;;;;;;34.08;13.15;;;;;;;5.79;80.14;96731.16;5111301;28;20104;-65
2022/01/05 01:31:28;;;;;;;60.90;24.27;;;;;;;5.69;79.77;96743.09;5111779;28;20030;-66
2022/01/05 01:33:54;;;;;;;52.03;24.15;;;;;;;5.61;79.64;96739.16;5094814;27;20023;-65
2022/01/05 01:36:20;;;;;;;19.95;8.18;;;;;;;5.58;79.83;96745.19;5111386;27;20546;-65
2022/01/05 01:38:45;;;;;;;5.63;2.90;;;;;;;5.54;79.63;96744.19;5092228;28;20039;-65
2022/01/05 01:41:11;;;;;;;5.30;2.67;;;;;;;5.48;79.95;96742.72;5111422;28;20388;-65
2022/01/05 01:43:37;;;;;;;5.30;2.63;;;;;;;5.44;79.63;96744.44;5111633;28;20027;-65
2022/01/05 01:46:04;;;;;;;23.70;9.23;;;;;;;5.40;80.11;96738.00;5093342;28;20031;-65
2022/01/05 01:48:30;;;;;;;24.20;11.70;;;;;;;5.38;79.86;96745.66;5093021;28;20023;-65
2022/01/05 01:50:55;;;;;;;15.00;8.07;;;;;;;5.36;79.84;96737.78;5110788;28;20033;-65
2022/01/05 01:53:21;;;;;;;8.57;4.97;;;;;;;5.41;80.36;96736.91;5110946;28;20015;-65
2022/01/05 01:55:48;;;;;;;4.85;3.80;;;;;;;5.50;80.42;96751.38;5111126;28;20019;-65
2022/01/05 01:58:14;;;;;;;4.97;2.67;;;;;;;5.59;80.03;96759.63;5091509;27;20035;-65
2022/01/05 02:00:40;;;;;;;7.35;5.60;;;;;;;5.60;80.44;96761.22;5110675;27;20028;-65
2022/01/05 02:03:05;;;;;;;10.80;5.65;;;;;;;5.59;80.38;96746.03;5112347;28;20106;-65
2022/01/05 02:05:31;;;;;;;8.38;5.57;;;;;;;5.59;80.18;96740.59;5111299;28;20032;-65
2022/01/05 02:07:56;;;;;;;13.32;7.63;;;;;;;5.56;79.78;96744.69;5093691;28;20096;-65
2022/01/05 02:10:22;;;;;;;11.98;6.65;;;;;;;5.55;80.03;96717.81;5112046;28;20111;-65
2022/01/05 02:12:50;;;;;;;11.65;7.47;;;;;;;5.62;79.95;96726.38;5111674;28;20028;-65
2022/01/05 02:15:16;;;;;;;12.00;7.65;;;;;;;5.66;79.81;96736.31;5109085;28;20081;-65
2022/01/05 02:18:10;;;;;;;16.10;8.88;;;;;;;5.65;79.74;96742.88;5092846;28;20028;-65
2022/01/05 02:20:36;;;;;;;17.05;10.32;;;;;;;5.65;79.69;96753.75;5108796;28;20501;-65
2022/01/05 02:23:01;;;;;;;19.60;10.25;;;;;;;5.61;79.74;96754.69;5109954;28;20024;-66
2022/01/05 02:25:28;;;;;;;11.45;7.60;;;;;;;5.58;79.76;96756.09;5110535;28;20016;-65
2022/01/05 02:27:55;;;;;;;10.98;7.03;;;;;;;5.58;79.65;96745.19;5110560;28;20024;-65
2022/01/05 02:30:28;;;;;;;11.38;7.97;;;;;;;5.66;79.95;96752.66;5108446;28;20073;-66
2022/01/05 02:32:54;;;;;;;13.63;8.02;;;;;;;5.74;79.93;96750.31;5092187;28;20022;-65
2022/01/05 02:35:19;;;;;;;16.00;9.30;;;;;;;5.81;79.66;96742.53;5109045;28;20023;-65
2022/01/05 02:37:47;;;;;;;15.55;9.20;;;;;;;5.87;79.80;96732.34;5110456;28;20020;-65
2022/01/05 02:40:15;;;;;;;16.50;10.25;;;;;;;5.91;79.88;96746.94;5109636;28;20086;-65
2022/01/05 02:42:41;;;;;;;16.83;8.93;;;;;;;5.95;79.90;96732.38;5109985;28;20016;-65
2022/01/05 02:45:09;;;;;;;15.85;8.80;;;;;;;5.97;79.91;96726.66;5110299;28;20038;-66
2022/01/05 02:47:35;;;;;;;15.43;9.40;;;;;;;5.93;79.31;96729.19;5109937;28;20026;-65
2022/01/05 02:50:02;;;;;;;13.95;8.50;;;;;;;5.91;79.30;96725.16;5103727;28;20035;-65
2022/01/05 02:52:28;;;;;;;14.70;8.25;;;;;;;5.92;79.35;96718.63;5109011;28;20015;-65
2022/01/05 02:54:53;;;;;;;13.98;7.72;;;;;;;5.89;79.14;96703.72;5109960;28;20030;-65
2022/01/05 02:57:18;;;;;;;17.23;9.38;;;;;;;5.85;79.16;96707.34;5091117;28;20049;-65
2022/01/05 02:59:44;;;;;;;13.95;8.50;;;;;;;5.81;79.52;96693.56;5110084;28;20028;-67
2022/01/05 03:02:09;;;;;;;18.27;10.20;;;;;;;5.77;79.06;96695.28;5108338;28;20027;-66
2022/01/05 03:04:35;;;;;;;17.10;9.98;;;;;;;5.73;79.04;96686.94;5109518;28;20052;-65
2022/01/05 03:07:00;;;;;;;15.80;9.45;;;;;;;5.73;79.53;96681.50;5090576;28;20054;-66
2022/01/05 03:09:26;;;;;;;16.98;9.48;;;;;;;5.72;79.19;96655.41;5111117;28;20380;-65
2022/01/05 03:11:52;;;;;;;16.40;9.00;;;;;;;5.74;79.20;96655.09;5107177;28;20040;-65
2022/01/05 03:14:18;;;;;;;16.02;9.57;;;;;;;5.74;79.44;96655.91;5108768;28;20046;-65
2022/01/05 03:16:43;;;;;;;14.07;8.35;;;;;;;5.75;79.23;96660.22;5108432;28;20480;-66
2022/01/05 03:19:09;;;;;;;15.18;8.30;;;;;;;5.71;79.34;96663.88;5091849;28;20020;-66
2022/01/05 03:21:34;;;;;;;15.63;8.35;;;;;;;5.68;78.93;96667.22;5110055;28;20027;-66
2022/01/05 03:24:01;;;;;;;18.60;9.02;;;;;;;5.62;79.07;96667.34;5109538;28;20050;-66
2022/01/05 03:26:26;;;;;;;18.38;11.07;;;;;;;5.65;79.46;96660.50;5109804;28;20029;-66
2022/01/05 03:28:51;;;;;;;16.60;10.25;;;;;;;5.65;79.05;96644.97;5107575;28;20039;-66
2022/01/05 03:31:17;;;;;;;17.52;10.23;;;;;;;5.65;79.34;96653.13;5109112;28;20016;-66
2022/01/05 03:33:42;;;;;;;15.77;9.10;;;;;;;5.61;79.01;96673.88;5110328;28;20030;-66
2022/01/05 03:36:09;;;;;;;18.65;9.52;;;;;;;5.54;79.06;96670.78;5109302;28;20028;-66
2022/01/05 03:38:34;;;;;;;20.15;11.43;;;;;;;5.55;78.92;96677.84;5106726;28;20026;-66
2022/01/05 03:40:59;;;;;;;16.02;8.90;;;;;;;5.51;79.20;96669.50;5108675;28;21269;-66
2022/01/05 03:43:25;;;;;;;18.15;9.63;;;;;;;5.48;78.58;96666.59;5108623;28;20032;-67
2022/01/05 03:45:51;;;;;;;18.70;9.48;;;;;;;5.47;78.97;96682.09;5106898;28;20379;-66
2022/01/05 03:48:18;;;;;;;18.73;12.02;;;;;;;5.45;79.11;96684.31;5109800;28;20023;-66
2022/01/05 03:50:44;;;;;;;18.70;11.18;;;;;;;5.41;78.66;96693.41;5109239;28;20058;-67
2022/01/05 03:53:11;;;;;;;15.70;9.30;;;;;;;5.40;79.05;96702.66;5091484;28;20046;-65
2022/01/05 03:55:39;;;;;;;18.25;10.50;;;;;;;5.40;79.28;96708.88;5107726;28;20035;-65
2022/01/05 03:58:05;;;;;;;14.38;8.50;;;;;;;5.38;78.98;96704.88;5106406;28;20028;-65
2022/01/05 04:00:32;;;;;;;17.02;10.48;;;;;;;5.35;79.11;96701.66;5106690;28;20179;-65
2022/01/05 04:02:58;;;;;;;20.77;12.95;;;;;;;5.35;78.64;96698.94;5108541;28;20019;-65
2022/01/05 04:05:24;;;;;;;18.08;10.52;;;;;;;5.36;78.83;96700.56;5102217;28;20093;-65
2022/01/05 04:07:49;;;;;;;13.80;8.85;;;;;;;5.34;79.18;96713.66;5109186;28;20442;-66
2022/01/05 04:10:16;;;;;;;13.30;8.43;;;;;;;5.30;79.20;96715.38;5108325;28;20023;-65
2022/01/05 04:12:41;;;;;;;29.27;12.80;;;;;;;5.26;78.75;96711.63;5102090;28;20062;-65
2022/01/05 04:15:07;;;;;;;21.75;10.75;;;;;;;5.22;78.61;96703.31;5105638;28;20043;-65
2022/01/05 04:17:33;;;;;;;19.63;10.90;;;;;;;5.23;79.16;96698.66;5109054;28;20027;-65
2022/01/05 04:19:58;;;;;;;13.23;7.20;;;;;;;5.28;78.94;96739.31;5108907;28;20590;-65
2022/01/05 04:22:23;;;;;;;20.13;10.25;;;;;;;5.23;79.17;96734.00;5108971;28;20031;-65
2022/01/05 04:24:49;;;;;;;16.05;8.95;;;;;;;5.21;79.07;96734.31;5092129;28;20094;-65
2022/01/05 04:27:15;;;;;;;17.10;9.45;;;;;;;5.21;79.32;96734.31;5110250;28;20480;-65
2022/01/05 04:29:42;;;;;;;17.10;9.60;;;;;;;5.20;79.40;96732.69;5110143;28;20150;-64
2022/01/05 04:32:08;;;;;;;26.20;12.00;;;;;;;5.19;79.22;96741.13;5110592;28;20492;-65
2022/01/05 04:34:33;;;;;;;27.33;12.30;;;;;;;5.16;78.80;96739.03;5110364;28;20073;-65
2022/01/05 04:36:59;;;;;;;28.75;12.43;;;;;;;5.14;78.95;96735.81;5110152;28;20422;-65
2022/01/05 04:39:24;;;;;;;27.73;12.02;;;;;;;5.15;79.65;96721.09;5110397;28;20035;-65
2022/01/05 04:41:49;;;;;;;31.20;12.98;;;;;;;5.12;79.55;96729.88;5075381;28;20043;-65
2022/01/05 04:44:15;;;;;;;35.22;14.93;;;;;;;5.12;79.37;96727.16;5112641;28;20058;-65
2022/01/05 04:46:40;;;;;;;46.25;18.55;;;;;;;5.12;79.02;96724.44;5113245;28;20387;-65
2022/01/05 04:49:05;;;;;;;49.15;18.65;;;;;;;5.09;79.63;96727.78;5112316;28;20058;-65
2022/01/05 04:51:31;;;;;;;39.70;16.65;;;;;;;5.07;79.63;96738.94;5113194;28;20416;-65
2022/01/05 04:53:56;;;;;;;39.25;16.08;;;;;;;5.06;79.79;96727.28;5115096;27;20031;-65
2022/01/05 04:56:22;;;;;;;36.83;15.45;;;;;;;5.07;79.78;96725.34;5114086;28;20445;-65
2022/01/05 04:58:47;;;;;;;20.05;10.15;;;;;;;5.08;79.21;96729.69;5114047;27;20028;-65
2022/01/05 05:01:14;;;;;;;20.00;10.68;;;;;;;5.08;79.33;96729.69;5113718;28;20036;-65
2022/01/05 05:03:39;;;;;;;29.83;13.32;;;;;;;5.09;79.69;96734.00;5094627;28;20028;-64
2022/01/05 05:06:05;;;;;;;33.72;14.82;;;;;;;5.09;79.40;96730.50;5113790;28;20077;-65
2022/01/05 05:08:30;;;;;;;29.98;14.32;;;;;;;5.08;79.61;96724.25;5113495;28;20043;-65
2022/01/05 05:10:56;;;;;;;23.50;11.68;;;;;;;5.06;79.42;96726.47;5113606;28;20030;-65
2022/01/05 05:13:21;;;;;;;30.98;15.20;;;;;;;5.04;79.76;96726.78;5113806;28;20103;-65
2022/01/05 05:15:48;;;;;;;29.30;14.20;;;;;;;5.03;79.61;96716.19;5114108;28;20039;-65
2022/01/05 05:18:13;;;;;;;31.33;12.20;;;;;;;5.02;79.62;96701.00;5112625;28;20471;-65
2022/01/05 05:20:40;;;;;;;24.10;14.63;;;;;;;5.02;80.05;96701.81;5113495;28;20249;-66
2022/01/05 05:23:06;;;;;;;13.80;7.90;;;;;;;5.03;79.89;96703.44;5095528;28;20391;-65
2022/01/05 05:25:32;;;;;;;24.83;11.65;;;;;;;5.04;80.24;96712.38;5095692;28;20032;-65
2022/01/05 05:27:58;;;;;;;17.77;9.60;;;;;;;5.04;79.99;96715.91;5111503;28;20114;-65
2022/01/05 05:30:24;;;;;;;16.02;8.88;;;;;;;5.05;79.83;96709.38;5112712;28;21426;-65
2022/01/05 05:32:49;;;;;;;12.85;8.02;;;;;;;5.12;80.56;96698.06;5095000;28;20535;-65
2022/01/05 05:35:16;;;;;;;17.40;9.32;;;;;;;5.18;79.97;96694.16;5113607;28;20023;-65
2022/01/05 05:37:41;;;;;;;20.55;12.00;;;;;;;5.20;80.30;96682.97;5113447;28;20025;-64
2022/01/05 05:40:07;;;;;;;18.48;11.25;;;;;;;5.30;80.64;96690.09;5112712;28;20384;-65
2022/01/05 05:42:32;;;;;;;19.20;11.65;;;;;;;5.34;80.30;96696.50;5112053;28;20125;-65
2022/01/05 05:44:58;;;;;;;17.05;11.98;;;;;;;5.37;79.90;96698.63;5113092;28;20045;-65
2022/01/05 05:47:23;;;;;;;21.25;13.77;;;;;;;5.40;79.68;96705.38;5113605;27;20031;-65
2022/01/05 05:49:48;;;;;;;19.50;12.52;;;;;;;5.39;80.13;96712.72;5112356;28;20487;-65
2022/01/05 05:52:15;;;;;;;18.52;12.70;;;;;;;5.38;80.22;96707.59;5113536;28;20047;-65
2022/01/05 05:54:40;;;;;;;20.02;11.73;;;;;;;5.36;80.00;96706.00;5113052;28;20098;-64
2022/01/05 05:57:06;;;;;;;18.20;9.75;;;;;;;5.43;79.62;96685.75;5112591;28;20177;-64
2022/01/05 05:59:32;;;;;;;18.05;10.45;;;;;;;5.52;80.33;96692.03;5112664;28;20043;-65
2022/01/05 06:01:57;;;;;;;21.88;11.35;;;;;;;5.53;79.84;96730.94;5112548;28;20024;-65
2022/01/05 06:04:23;;;;;;;156.60;45.25;;;;;;;5.42;79.59;96743.94;5112530;28;20031;-65
2022/01/05 06:06:48;;;;;;;233.45;63.10;;;;;;;5.35;79.81;96741.63;5110374;27;20459;-65
2022/01/05 06:09:14;;;;;;;77.72;26.17;;;;;;;5.28;79.61;96750.19;5112764;28;20460;-65
2022/01/05 06:11:39;;;;;;;30.60;13.90;;;;;;;5.24;79.65;96749.19;5111535;28;20035;-64
2022/01/05 06:14:04;;;;;;;47.83;19.25;;;;;;;5.17;79.35;96755.03;5092882;28;20030;-64
2022/01/05 06:16:30;;;;;;;47.38;16.48;;;;;;;5.14;79.33;96752.09;5111616;27;20111;-65
2022/01/05 06:18:55;;;;;;;21.00;12.13;;;;;;;5.14;79.88;96741.25;5110629;28;20028;-65
2022/01/05 06:21:21;;;;;;;17.88;10.60;;;;;;;5.15;79.82;96751.81;5110635;28;20020;-65
2022/01/05 06:23:46;;;;;;;17.42;10.57;;;;;;;5.18;79.56;96744.97;5112612;27;20064;-65
2022/01/05 06:26:11;;;;;;;19.38;10.95;;;;;;;5.22;79.79;96741.34;5112567;28;20024;-65
2022/01/05 06:28:37;;;;;;;15.88;10.07;;;;;;;5.30;80.15;96739.03;5112308;28;20047;-65
2022/01/05 06:31:03;;;;;;;18.10;10.82;;;;;;;5.38;80.27;96738.28;5112031;27;20072;-64
2022/01/05 06:33:28;;;;;;;20.20;11.38;;;;;;;5.48;80.36;96742.72;5111413;27;20023;-65
2022/01/05 06:35:54;;;;;;;23.92;13.95;;;;;;;5.57;80.13;96734.66;5111781;28;20028;-65
2022/01/05 06:38:19;;;;;;;30.17;16.42;;;;;;;5.62;80.21;96727.16;5111661;28;20480;-65
2022/01/05 06:40:44;;;;;;;31.17;19.27;;;;;;;5.69;80.34;96739.53;5111286;28;20391;-65
2022/01/05 06:43:10;;;;;;;31.88;18.55;;;;;;;5.70;80.03;96761.00;5111788;27;20074;-65
2022/01/05 06:45:35;;;;;;;26.27;15.73;;;;;;;5.69;79.62;96761.31;5111749;28;20514;-65
2022/01/05 06:48:01;;;;;;;38.60;21.63;;;;;;;5.64;79.85;96767.69;5108748;28;20027;-65
2022/01/05 06:50:27;;;;;;;31.17;19.38;;;;;;;5.60;79.95;96761.22;5111126;28;20108;-65
2022/01/05 06:52:55;;;;;;;21.63;12.57;;;;;;;5.62;79.67;96756.28;5111261;28;20039;-65
2022/01/05 06:55:21;;;;;;;29.35;15.13;;;;;;;5.64;79.46;96741.25;5110422;28;20019;-64
2022/01/05 06:57:47;;;;;;;30.92;16.55;;;;;;;5.60;79.59;96748.44;5111130;28;20612;-65
2022/01/05 07:00:14;;;;;;;29.38;15.23;;;;;;;5.63;79.59;96744.31;5111508;27;20088;-65
2022/01/05 07:02:39;;;;;;;31.17;17.60;;;;;;;5.62;79.70;96737.25;5112004;27;20036;-65
2022/01/05 07:05:06;;;;;;;40.80;20.63;;;;;;;5.54;79.08;96743.41;5111058;28;20034;-65
2022/01/05 07:07:32;;;;;;;48.13;24.30;;;;;;;5.55;79.92;96750.47;5109916;28;20043;-65
2022/01/05 07:09:58;;;;;;;66.93;31.73;;;;;;;5.57;79.49;96751.75;5109499;28;20433;-65
2022/01/05 07:12:23;;;;;;;75.82;35.65;;;;;;;5.59;79.79;96743.31;5109993;28;20469;-65
2022/01/05 07:14:48;;;;;;;96.63;45.53;;;;;;;5.59;79.83;96757.69;5110771;28;20360;-65
2022/01/05 07:17:14;;;;;;;131.93;57.85;;;;;;;5.59;79.94;96754.97;5090490;28;20077;-65
2022/01/05 07:19:39;;;;;;;97.10;45.70;;;;;;;5.53;79.29;96749.97;5110239;27;20023;-65
2022/01/05 07:22:05;;;;;;;96.85;40.13;;;;;;;5.55;79.79;96748.53;5109887;27;20031;-66
2022/01/05 07:24:30;;;;;;;71.95;28.98;;;;;;;5.56;79.58;96755.59;5109386;27;20045;-65
2022/01/05 07:26:55;;;;;;;66.70;29.23;;;;;;;5.56;79.79;96754.78;5110124;27;20442;-65
2022/01/05 07:29:21;;;;;;;101.18;35.78;;;;;;;5.63;79.96;96749.75;5109812;28;20459;-65
2022/01/05 07:31:47;;;;;;;52.67;23.67;;;;;;;5.66;79.46;96757.28;5090123;28;20019;-65
2022/01/05 07:34:13;;;;;;;62.17;28.48;;;;;;;5.68;79.70;96748.81;5107836;28;20559;-65
2022/01/05 07:36:39;;;;;;;69.07;31.75;;;;;;;5.70;79.78;96744.69;5106308;28;20114;-65
2022/01/05 07:39:05;;;;;;;111.88;56.13;;;;;;;5.71;79.81;96756.38;5111667;27;20034;-65
2022/01/05 07:41:36;;;;;;;132.07;66.63;;;;;;;5.74;79.60;96739.44;5109435;27;20065;-64
2022/01/05 07:44:03;;;;;;;127.68;68.00;;;;;;;5.79;79.80;96742.84;5107531;28;20016;-64
2022/01/05 07:46:29;;;;;;;109.97;52.15;;;;;;;5.75;80.04;96736.38;5105759;28;20053;-64
2022/01/05 07:48:54;;;;;;;80.93;39.20;;;;;;;5.78;80.24;96733.06;5108503;28;20491;-64
2022/01/05 07:51:20;;;;;;;46.28;24.92;;;;;;;5.78;79.38;96733.06;5109887;28;20035;-64
2022/01/05 07:53:45;;;;;;;51.67;24.95;;;;;;;5.77;79.66;96734.16;5091463;28;20030;-65
2022/01/05 07:56:11;;;;;;;41.72;22.75;;;;;;;5.84;79.46;96739.22;5105433;28;20422;-65
2022/01/05 07:58:37;;;;;;;55.90;28.08;;;;;;;5.88;79.55;96748.38;5110220;28;20032;-65
2022/01/05 08:01:04;;;;;;;59.63;29.58;;;;;;;5.88;79.44;96742.94;5106780;28;20092;-66
2022/01/05 08:03:33;;;;;;;43.80;25.65;;;;;;;5.86;79.46;96745.16;5109661;28;20031;-64
2022/01/05 08:06:00;;;;;;;49.10;29.20;;;;;;;5.80;79.67;96746.38;5109699;28;20116;-65
2022/01/05 08:08:26;;;;;;;39.38;24.60;;;;;;;5.72;79.19;96755.25;5111010;28;20407;-64
2022/01/05 08:10:51;;;;;;;32.67;21.83;;;;;;;5.62;79.54;96754.38;5110843;28;20038;-65
2022/01/05 08:13:16;;;;;;;30.92;18.15;;;;;;;5.59;79.38;96759.63;5089973;28;20019;-66
2022/01/05 08:15:42;;;;;;;30.98;18.05;;;;;;;5.54;79.26;96763.25;5110930;28;20106;-65
2022/01/05 08:18:07;;;;;;;37.30;20.73;;;;;;;5.50;80.11;96748.66;5090636;28;20480;-68
2022/01/05 08:20:32;;;;;;;35.75;21.20;;;;;;;5.46;79.71;96761.25;5093754;28;20039;-66
2022/01/05 08:22:58;;;;;;;37.17;23.50;;;;;;;5.46;80.06;96755.81;5112650;28;20039;-66
2022/01/05 08:25:23;;;;;;;38.80;23.00;;;;;;;5.45;79.64;96765.09;5116775;27;20059;-65
2022/01/05 08:27:49;;;;;;;51.50;31.40;;;;;;;5.48;80.05;96773.44;5113819;27;20027;-66
2022/01/05 08:30:25;;;;;;;49.78;30.50;;;;;;;5.42;79.59;96771.13;5096329;28;20032;-65
2022/01/05 08:32:53;;;;;;;42.20;24.48;;;;;;;5.32;79.77;96772.94;5113232;28;20028;-65
2022/01/05 08:35:22;;;;;;;39.45;24.23;;;;;;;5.26;80.07;96776.88;5113965;28;20035;-64
2022/01/05 08:37:48;;;;;;;39.42;23.70;;;;;;;5.24;80.35;96770.16;5113392;27;20053;-65
2022/01/05 08:40:21;;;;;;;41.22;24.20;;;;;;;5.20;80.07;96768.03;5117213;27;20077;-65
2022/01/05 08:42:47;;;;;;;38.95;23.95;;;;;;;5.16;80.85;96768.91;5112504;28;20055;-65
2022/01/05 08:45:14;;;;;;;39.97;24.63;;;;;;;5.14;80.32;96777.38;5112223;28;20506;-65
2022/01/05 08:47:40;;;;;;;35.35;22.58;;;;;;;5.15;81.03;96789.06;5113574;28;20019;-66
2022/01/05 08:50:06;;;;;;;49.85;30.38;;;;;;;5.12;81.23;96792.38;5094393;28;20444;-66
2022/01/05 08:52:32;;;;;;;70.43;35.47;;;;;;;5.13;81.14;96788.53;5113254;28;20035;-65
2022/01/05 08:54:57;;;;;;;45.15;24.25;;;;;;;5.13;80.77;96783.09;5113014;28;20031;-65
2022/01/05 08:57:23;;;;;;;42.28;23.40;;;;;;;5.15;80.98;96783.63;5113455;28;20430;-65
2022/01/05 08:59:51;;;;;;;34.80;20.33;;;;;;;5.13;81.38;96783.94;5113583;28;20039;-65
2022/01/05 09:02:18;;;;;;;43.55;23.77;;;;;;;5.12;81.10;96767.91;5112983;28;20030;-65
2022/01/05 09:04:43;;;;;;;43.65;22.45;;;;;;;5.12;81.15;96774.16;5113518;28;20063;-66
2022/01/05 09:07:09;;;;;;;42.80;23.38;;;;;;;5.13;82.10;96775.78;5113215;28;20055;-65
2022/01/05 09:09:34;;;;;;;37.63;22.30;;;;;;;5.13;81.57;96778.50;5113266;28;20035;-66
2022/01/05 09:12:00;;;;;;;37.67;20.65;;;;;;;5.16;81.21;96777.91;5113533;28;20490;-66
2022/01/05 09:14:25;;;;;;;31.83;17.58;;;;;;;5.20;80.92;96784.34;5114012;27;20059;-66
2022/01/05 09:16:52;;;;;;;34.78;19.92;;;;;;;5.21;80.92;96796.00;5113309;28;20522;-66
2022/01/05 09:19:18;;;;;;;30.48;16.92;;;;;;;5.23;81.13;96799.22;5113185;28;20023;-66
2022/01/05 09:21:43;;;;;;;28.77;17.00;;;;;;;5.28;81.28;96793.69;5113677;27;20035;-66
2022/01/05 09:24:08;;;;;;;31.33;16.92;;;;;;;5.34;80.76;96786.22;5120149;27;20035;-64
2022/01/05 09:26:34;;;;;;;29.90;16.77;;;;;;;5.37;81.06;96785.63;5114770;27;20747;-64
2022/01/05 09:28:59;;;;;;;26.27;15.45;;;;;;;5.46;81.25;96788.44;5112996;27;20039;-65
2022/01/05 09:31:25;;;;;;;27.45;15.55;;;;;;;5.58;81.39;96794.16;5112197;27;20027;-65
2022/01/05 09:33:50;;;;;;;24.73;13.13;;;;;;;5.66;81.21;96793.44;5110790;27;20019;-64
2022/01/05 09:36:30;;;;;;;25.02;14.65;;;;;;;5.64;81.24;96795.66;5113431;27;20023;-64
2022/01/05 09:41:57;;;;;;;22.80;12.85;;;;;;;5.63;81.41;96804.13;5113211;27;20046;-65
2022/01/05 09:44:56;;;;;;;25.45;15.05;;;;;;;5.61;80.78;96799.00;5111838;28;20430;-64
2022/01/05 09:47:36;;;;;;;23.27;13.33;;;;;;;5.59;81.25;96798.50;5053784;28;20038;-64
2022/01/05 09:50:06;;;;;;;24.90;14.15;;;;;;;5.56;80.62;96788.22;5111237;28;20023;-65
2022/01/05 09:52:33;;;;;;;31.88;18.90;;;;;;;5.51;80.74;96782.88;5111286;28;20019;-64
2022/01/05 09:54:59;;;;;;;29.23;15.95;;;;;;;5.46;81.16;96777.56;5110875;28;20361;-65
2022/01/05 09:57:25;;;;;;;26.88;15.55;;;;;;;5.38;80.58;96779.06;5111007;28;20027;-65
2022/01/05 09:59:51;;;;;;;23.08;14.07;;;;;;;5.36;80.73;96781.28;5093126;28;20027;-65
2022/01/05 10:02:19;;;;;;;22.92;13.77;;;;;;;5.36;80.72;96789.44;5113577;27;20037;-65
2022/01/05 10:04:45;;;;;;;22.75;13.07;;;;;;;5.35;81.10;96783.22;5111056;28;20035;-64
2022/01/05 10:07:11;;;;;;;25.25;14.00;;;;;;;5.30;80.90;96799.63;5111122;28;20048;-65
2022/01/05 10:09:38;;;;;;;23.50;15.07;;;;;;;5.27;80.88;96802.16;5110507;28;20029;-64
2022/01/05 10:12:04;;;;;;;22.35;14.23;;;;;;;5.26;80.76;96795.91;5111634;27;20040;-66
2022/01/05 10:14:31;;;;;;;24.88;14.90;;;;;;;5.25;80.89;96797.00;5111310;28;20050;-65
2022/01/05 10:17:28;;;;;;;35.20;17.48;;;;;;;5.24;81.27;96787.25;5111362;28;20107;-64
2022/01/05 10:20:07;;;;;;;22.88;13.65;;;;;;;5.22;81.38;96793.00;5089639;27;20035;-64
2022/01/05 10:22:40;;;;;;;69.20;28.40;;;;;;;5.26;80.88;96795.13;5110259;28;20028;-66
2022/01/05 10:25:15;;;;;;;57.15;23.35;;;;;;;5.26;81.48;96778.81;5093012;28;20046;-65
2022/01/05 10:27:42;;;;;;;70.88;27.23;;;;;;;5.31;81.28;96782.22;5112434;27;20030;-65
2022/01/05 10:30:12;;;;;;;32.38;16.27;;;;;;;5.34;80.82;96780.78;5107517;28;20053;-65
2022/01/05 10:32:38;;;;;;;30.33;13.73;;;;;;;5.34;81.38;96781.59;5111327;28;20077;-65
2022/01/05 10:35:04;;;;;;;29.05;14.02;;;;;;;5.33;80.91;96780.00;5110403;27;20023;-64
2022/01/05 10:37:29;;;;;;;25.50;14.52;;;;;;;5.32;81.16;96788.44;5110152;28;20031;-65
2022/01/05 10:40:22;;;;;;;23.35;13.40;;;;;;;5.28;80.93;96790.19;5092193;28;20464;-65
2022/01/05 10:42:56;;;;;;;25.67;13.93;;;;;;;5.25;80.84;96786.13;5109275;28;20037;-66
2022/01/05 10:45:38;;;;;;;34.92;16.60;;;;;;;5.24;80.88;96775.59;5109316;28;20024;-64
2022/01/05 10:48:05;;;;;;;24.77;13.48;;;;;;;5.26;81.10;96784.25;5090978;28;20066;-64
2022/01/05 10:50:31;;;;;;;18.60;11.27;;;;;;;5.25;80.88;96788.84;5110305;28;20446;-65
2022/01/05 10:52:57;;;;;;;20.38;11.93;;;;;;;5.24;81.23;96784.53;5110627;28;20024;-64
2022/01/05 10:55:26;;;;;;;19.27;10.77;;;;;;;5.24;81.13;96776.38;5109748;28;20114;-66
2022/01/05 10:58:04;;;;;;;29.77;16.70;;;;;;;5.27;80.81;96783.13;5109595;28;20028;-65
2022/01/05 11:00:41;;;;;;;29.23;14.98;;;;;;;5.27;81.02;96799.44;5109626;28;20031;-64
2022/01/05 11:03:35;;;;;;;29.17;14.93;;;;;;;5.26;80.68;96795.13;5110141;28;20061;-66
2022/01/05 11:06:04;;;;;;;20.63;12.05;;;;;;;5.24;80.91;96798.13;5110310;28;20019;-65
2022/01/05 11:08:31;;;;;;;21.88;12.15;;;;;;;5.24;80.95;96792.69;5109895;28;20612;-65
2022/01/05 11:10:57;;;;;;;30.08;14.95;;;;;;;5.24;80.86;96784.53;5109649;28;20085;-65
2022/01/05 11:13:22;;;;;;;18.85;11.30;;;;;;;5.28;81.37;96790.19;5110088;28;20028;-65
2022/01/05 11:15:56;;;;;;;19.63;11.32;;;;;;;5.31;81.06;96795.81;5110094;28;20434;-64
2022/01/05 11:18:21;;;;;;;16.35;10.77;;;;;;;5.32;80.86;96793.88;5110070;28;20387;-64
2022/01/05 11:20:51;;;;;;;21.38;12.02;;;;;;;5.35;80.66;96794.09;5109641;27;20080;-65
2022/01/05 11:23:20;;;;;;;21.23;11.07;;;;;;;5.33;80.66;96788.16;5107874;27;20024;-65
2022/01/05 11:25:47;;;;;;;38.55;17.60;;;;;;;5.34;80.65;96781.59;5108469;28;20433;-65
2022/01/05 11:28:15;;;;;;;29.48;14.68;;;;;;;5.41;80.76;96785.84;5092408;28;20074;-64
2022/01/05 11:30:42;;;;;;;23.95;12.57;;;;;;;5.47;81.02;96795.50;5088082;28;20055;-65